SBJP/JPA METAR and TAF weather

Enter ICAO airport designator
Station Type Date Time Source
SBJP METAR 2021/09/16 10:00 UTC NOAA

SBJP 161000Z 15005KT 9999 FEW020 25/24 Q1017


Station Type Date Time Source
SBJP Decoded METAR 2021/09/16 10:00 UTC NOAA

Joao Pessoa, Brazil (SBJP) 07-06S 034-52W
Sep 16, 2021 - 06:00 AM EDT / 2021.09.16 1000 UTC
Wind: from the SSE (150 degrees) at 6 MPH (5 KT):0
Visibility: greater than 7 mile(s):0
Sky conditions: mostly clear
Temperature: 77 F (25 C)
Dew Point: 75 F (24 C)
Relative Humidity: 94%
Pressure (altimeter): 30.03 in. Hg (1017 hPa)
ob: SBJP 161000Z 15005KT 9999 FEW020 25/24 Q1017
cycle: 10

Station Type Date Time Source
SBJP TAF 2021/09/16 12:09 UTC NOAA

TAF TAF SBJP 160900Z 1612/1712 12010KT 9999 BKN025 TX29/1616Z TN23/1707Z
BECMG 1702/1704 18005KT SCT020
BECMG 1710/1712 12010KT BKN023
RMK PHD

Example: see airport list